Time;durP1;ratioP1;P1;durP2;ratioP2;P2;SDS_P1;SDS_P2;PMS_P1;PMS_P2;Temp;Humidity;BMP_temperature;BMP_pressure;BME280_temperature;BME280_humidity;BME280_pressure;Samples;Min_cycle;Max_cycle;Signal;HPM_P1;HPM_P2
2021/05/11 00:00:53;;;;;;;10.05;2.60;;;;;;;23.41;39.29;99528.16;4485033;32;33943;-59
2021/05/11 00:03:23;;;;;;;8.25;2.20;;;;;;;23.42;39.33;99532.53;4484817;32;34083;-59
2021/05/11 00:05:50;;;;;;;5.90;2.20;;;;;;;23.41;39.40;99532.78;4479719;32;34816;-60
2021/05/11 00:08:17;;;;;;;7.57;2.50;;;;;;;23.42;39.42;99534.41;4478727;32;34858;-60
2021/05/11 00:10:44;;;;;;;7.00;2.35;;;;;;;23.42;39.54;99523.53;4479378;32;34569;-60
2021/05/11 00:13:11;;;;;;;9.43;2.55;;;;;;;23.41;39.50;99528.16;4484396;32;34154;-60
2021/05/11 00:15:38;;;;;;;8.90;2.53;;;;;;;23.41;39.41;99524.59;4484631;32;34692;-60
2021/05/11 00:18:06;;;;;;;7.93;2.40;;;;;;;23.42;39.41;99534.41;4484727;32;33710;-60
2021/05/11 00:20:33;;;;;;;9.65;2.40;;;;;;;23.41;39.38;99528.16;4484611;32;34577;-61
2021/05/11 00:23:00;;;;;;;7.57;2.20;;;;;;;23.42;39.56;99527.09;4484695;32;33284;-60
2021/05/11 00:25:27;;;;;;;7.12;2.17;;;;;;;23.42;39.48;99526.25;4484764;32;33984;-60
2021/05/11 00:28:04;;;;;;;6.90;2.17;;;;;;;23.41;39.58;99528.16;4484319;32;33878;-60
2021/05/11 00:30:31;;;;;;;8.43;2.33;;;;;;;23.40;39.65;99523.75;4484696;32;33839;-60
2021/05/11 00:33:07;;;;;;;6.87;2.50;;;;;;;23.40;39.71;99522.91;4483673;32;33516;-61
2021/05/11 00:35:34;;;;;;;8.98;2.55;;;;;;;23.40;39.78;99522.91;4484610;32;33690;-59
2021/05/11 00:38:01;;;;;;;10.90;2.30;;;;;;;23.39;39.90;99521.25;4484677;32;34796;-60
2021/05/11 00:40:29;;;;;;;7.70;2.15;;;;;;;23.39;39.73;99524.00;4484567;32;33799;-60
2021/05/11 00:42:56;;;;;;;6.62;2.37;;;;;;;23.38;39.67;99528.59;4484479;32;33384;-59
2021/05/11 00:45:23;;;;;;;6.82;2.33;;;;;;;23.38;39.56;99528.59;4484354;32;33840;-60
2021/05/11 00:47:50;;;;;;;6.65;2.45;;;;;;;23.39;39.47;99524.00;4484439;32;33547;-61
2021/05/11 00:50:17;;;;;;;7.50;2.17;;;;;;;23.38;39.50;99528.59;4484388;32;34589;-60
2021/05/11 00:52:44;;;;;;;8.52;2.15;;;;;;;23.38;39.60;99523.16;4484879;32;33135;-59
2021/05/11 00:55:11;;;;;;;7.05;2.35;;;;;;;23.37;39.69;99521.50;4470303;32;33660;-60
2021/05/11 00:57:39;;;;;;;8.43;2.50;;;;;;;23.39;39.81;99526.72;4483362;32;33600;-60
2021/05/11 01:00:08;;;;;;;10.02;2.30;;;;;;;23.38;39.62;99525.06;4467365;32;33745;-59
2021/05/11 01:02:35;;;;;;;7.95;2.60;;;;;;;23.39;39.50;99529.44;4474332;32;34392;-58
2021/05/11 01:05:03;;;;;;;7.03;2.05;;;;;;;23.39;39.54;99518.53;4484258;32;34595;-59
2021/05/11 01:07:30;;;;;;;5.35;2.30;;;;;;;23.39;39.55;99522.09;4484717;32;33903;-59
2021/05/11 01:09:58;;;;;;;7.07;2.42;;;;;;;23.39;39.67;99522.09;4484401;32;33810;-59
2021/05/11 01:12:25;;;;;;;7.82;2.30;;;;;;;23.39;39.82;99519.38;4482978;31;33740;-60
2021/05/11 01:14:52;;;;;;;7.20;2.03;;;;;;;23.39;39.84;99524.81;4484440;32;34369;-60
2021/05/11 01:17:38;;;;;;;7.35;2.20;;;;;;;23.38;39.82;99523.16;4484703;32;33736;-60
2021/05/11 01:20:13;;;;;;;8.52;2.10;;;;;;;23.38;39.73;99527.78;4484220;32;33810;-59
2021/05/11 01:23:07;;;;;;;9.57;2.30;;;;;;;23.38;39.72;99528.59;4484289;32;33348;-60
2021/05/11 01:25:35;;;;;;;6.90;1.98;;;;;;;23.38;39.92;99531.34;4484281;32;33832;-57
2021/05/11 01:28:16;;;;;;;7.43;2.00;;;;;;;23.38;39.86;99531.34;4484016;32;33566;-60
2021/05/11 01:44:13;;;;;;;4.70;2.22;;;;;;;23.35;40.01;99515.44;4472955;32;33081;-60
2021/05/11 02:24:07;;;;;;;4.40;1.60;;;;;;;23.33;39.95;99503.16;4468188;32;33827;-61
2021/05/11 02:26:34;;;;;;;5.32;1.95;;;;;;;23.33;40.01;99508.59;4468211;32;33473;-61
2021/05/11 02:29:01;;;;;;;6.12;2.30;;;;;;;23.33;39.92;99509.41;4482993;32;33556;-61
2021/05/11 02:31:29;;;;;;;5.55;1.77;;;;;;;23.33;39.96;99505.87;4483903;32;33928;-61
2021/05/11 02:33:56;;;;;;;8.55;2.60;;;;;;;23.33;39.95;99516.75;4483623;32;33540;-61
2021/05/11 02:36:23;;;;;;;6.55;1.95;;;;;;;23.34;40.00;99508.34;4483889;32;33057;-58
2021/05/11 02:38:50;;;;;;;8.80;2.03;;;;;;;23.34;40.16;99507.53;4483806;32;33410;-61
2021/05/11 02:41:17;;;;;;;4.45;1.73;;;;;;;23.35;39.99;99501.00;4483677;32;35319;-60
2021/05/11 02:43:45;;;;;;;8.85;2.30;;;;;;;23.35;39.95;99498.28;4483389;32;34532;-61
2021/05/11 02:46:13;;;;;;;7.22;1.98;;;;;;;23.35;39.99;99501.00;4483388;32;33900;-60
2021/05/11 02:48:40;;;;;;;5.12;2.10;;;;;;;23.35;40.08;99496.38;4483691;32;33935;-61
2021/05/11 02:51:07;;;;;;;5.50;2.25;;;;;;;23.36;40.07;99489.06;4483373;32;34497;-61
2021/05/11 02:53:34;;;;;;;5.78;2.00;;;;;;;23.36;39.83;99481.75;4483612;32;33498;-60
2021/05/11 02:56:01;;;;;;;4.30;1.90;;;;;;;23.36;40.05;99491.78;4482800;32;32987;-61
2021/05/11 02:58:30;;;;;;;15.77;2.33;;;;;;;23.36;40.06;99483.59;4483150;32;33850;-61
2021/05/11 03:00:57;;;;;;;8.73;2.17;;;;;;;23.36;40.10;99484.47;4483424;32;33823;-60
2021/05/11 03:03:24;;;;;;;4.78;1.77;;;;;;;23.35;40.08;99490.13;4483422;32;34471;-61
2021/05/11 03:05:51;;;;;;;6.55;2.03;;;;;;;23.35;40.09;99484.66;4483266;32;33307;-61
2021/05/11 03:08:19;;;;;;;7.78;1.73;;;;;;;23.35;40.19;99493.66;4483330;32;33941;-59
2021/05/11 03:10:46;;;;;;;4.45;1.83;;;;;;;23.36;40.12;99491.78;4483240;32;33912;-61
2021/05/11 03:13:13;;;;;;;9.65;2.05;;;;;;;23.35;40.12;99496.38;4483183;32;34976;-61
2021/05/11 03:15:40;;;;;;;7.37;2.00;;;;;;;23.35;40.08;99501.84;4483188;32;34111;-61
2021/05/11 03:18:07;;;;;;;5.90;1.92;;;;;;;23.37;40.07;99505.16;4481767;32;34495;-61
2021/05/11 03:20:34;;;;;;;8.75;2.08;;;;;;;23.37;40.14;99509.78;4482975;32;33818;-61
2021/05/11 03:23:02;;;;;;;5.22;1.75;;;;;;;23.37;40.11;99501.62;4483376;32;33801;-60
2021/05/11 03:25:29;;;;;;;5.93;2.05;;;;;;;23.36;40.12;99498.06;4482931;32;34222;-61
2021/05/11 03:27:57;;;;;;;6.32;1.85;;;;;;;23.36;40.12;99498.06;4483157;32;34019;-61
2021/05/11 03:30:24;;;;;;;7.53;1.83;;;;;;;23.37;40.08;99501.62;4483054;32;33528;-61
2021/05/11 03:32:56;;;;;;;4.28;1.80;;;;;;;23.36;40.45;99497.22;4483312;32;33691;-61
2021/05/11 03:35:23;;;;;;;5.72;1.80;;;;;;;23.35;40.28;99503.72;4482541;32;33375;-62
2021/05/11 03:37:52;;;;;;;5.18;1.95;;;;;;;23.36;40.23;99498.06;4482791;32;33739;-60
2021/05/11 03:40:19;;;;;;;5.12;2.15;;;;;;;23.34;40.26;99505.63;4482915;32;33677;-61
2021/05/11 03:42:58;;;;;;;7.82;2.03;;;;;;;23.36;40.40;99510.81;4482732;32;34267;-60
2021/05/11 03:45:31;;;;;;;4.18;1.90;;;;;;;23.36;40.42;99508.09;4482823;32;33546;-61
2021/05/11 03:47:59;;;;;;;6.93;1.95;;;;;;;23.34;40.21;99502.91;4482883;32;34620;-61
2021/05/11 03:50:26;;;;;;;4.95;1.75;;;;;;;23.36;40.05;99500.78;4482753;32;33800;-61
2021/05/11 03:52:54;;;;;;;6.72;2.00;;;;;;;23.36;40.01;99502.66;4482393;32;34044;-62
2021/05/11 03:55:22;;;;;;;8.38;2.17;;;;;;;23.34;40.30;99505.63;4482555;32;33286;-61
2021/05/11 03:57:49;;;;;;;7.25;1.83;;;;;;;23.35;40.38;99507.28;4482790;32;33699;-61
2021/05/11 04:00:17;;;;;;;7.28;2.00;;;;;;;23.35;40.30;99507.28;4482443;32;33920;-60
2021/05/11 04:02:45;;;;;;;5.55;1.70;;;;;;;23.35;40.12;99506.47;4481198;32;33954;-61
2021/05/11 04:05:15;;;;;;;3.92;1.60;;;;;;;23.36;40.04;99502.66;4482571;32;33444;-60
2021/05/11 04:07:43;;;;;;;4.47;1.60;;;;;;;23.35;40.09;99496.38;4485027;32;33788;-61
2021/05/11 04:10:19;;;;;;;6.15;2.10;;;;;;;23.36;40.15;99503.53;4484884;32;33980;-61
2021/05/11 04:18:09;;;;;;;6.40;1.98;;;;;;;23.36;40.31;99502.66;4484920;32;33938;-61
2021/05/11 04:20:37;;;;;;;9.23;2.22;;;;;;;23.35;40.27;99501.84;4484680;32;34645;-60
2021/05/11 04:23:05;;;;;;;6.87;2.12;;;;;;;23.35;40.35;99509.19;4484882;32;33751;-60
2021/05/11 04:25:32;;;;;;;6.65;2.15;;;;;;;23.35;40.47;99501.00;4484802;32;33297;-61
2021/05/11 04:28:00;;;;;;;5.60;1.90;;;;;;;23.34;40.43;99492.00;4484730;32;33525;-61
2021/05/11 04:30:28;;;;;;;7.10;2.17;;;;;;;23.34;40.42;99502.06;4484642;32;33652;-61
2021/05/11 04:32:57;;;;;;;7.30;1.60;;;;;;;23.34;40.42;99493.91;4484961;32;33825;-61
2021/05/11 04:35:25;;;;;;;4.28;1.85;;;;;;;23.32;40.38;99502.31;4484714;32;33448;-62
2021/05/11 04:37:53;;;;;;;5.60;1.80;;;;;;;23.33;40.29;99503.97;4484935;32;33633;-60
2021/05/11 04:40:21;;;;;;;6.80;2.03;;;;;;;23.33;40.26;99500.44;4484903;32;33585;-63
2021/05/11 04:42:48;;;;;;;7.90;2.33;;;;;;;23.33;40.23;99492.25;4484486;32;33841;-60
2021/05/11 04:45:19;;;;;;;10.63;2.90;;;;;;;23.33;40.15;99498.53;4469000;32;33252;-61
2021/05/11 04:47:48;;;;;;;13.40;3.20;;;;;;;23.32;40.34;99491.44;4468907;32;34821;-58
2021/05/11 04:50:21;;;;;;;21.77;3.55;;;;;;;23.34;39.75;99496.63;4468820;32;33437;-59
2021/05/11 04:52:49;;;;;;;25.67;4.65;;;;;;;23.32;39.59;99498.78;4484550;32;33976;-57
2021/05/11 04:55:17;;;;;;;19.83;3.25;;;;;;;23.31;39.68;99500.63;4479277;32;34492;-57
2021/05/11 04:57:45;;;;;;;25.80;3.28;;;;;;;23.31;39.68;99505.25;4473799;32;33489;-57
2021/05/11 05:00:13;;;;;;;16.33;3.87;;;;;;;23.29;39.63;99499.22;4482948;32;34784;-56
2021/05/11 05:02:49;;;;;;;13.30;3.20;;;;;;;23.30;39.60;99498.16;4479051;32;34485;-56
2021/05/11 05:05:17;;;;;;;13.27;3.33;;;;;;;23.29;39.59;99500.06;4473509;32;33625;-53
2021/05/11 05:07:44;;;;;;;15.32;3.72;;;;;;;23.29;39.59;99496.50;4481694;32;34533;-57
2021/05/11 05:10:12;;;;;;;23.45;3.47;;;;;;;23.29;39.52;99496.50;4482462;32;33120;-56
2021/05/11 05:12:45;;;;;;;11.65;3.00;;;;;;;23.29;39.53;99496.50;4484049;32;34277;-58
2021/05/11 05:15:13;;;;;;;15.43;3.45;;;;;;;23.29;39.48;99491.06;4484211;32;33087;-56
2021/05/11 05:17:41;;;;;;;12.00;3.42;;;;;;;23.29;39.47;99499.22;4483529;32;34310;-56
2021/05/11 05:20:09;;;;;;;16.98;3.70;;;;;;;23.27;39.40;99502.19;4484545;32;33868;-58
2021/05/11 05:22:37;;;;;;;11.15;3.05;;;;;;;23.27;39.37;99504.06;4483785;32;33471;-58
2021/05/11 05:25:12;;;;;;;11.68;3.42;;;;;;;23.26;39.34;99508.69;4483788;32;33219;-57
2021/05/11 05:27:47;;;;;;;12.93;3.55;;;;;;;23.27;39.34;99498.63;4484217;32;34524;-57
2021/05/11 05:30:16;;;;;;;16.45;3.58;;;;;;;23.26;39.36;99514.13;4484023;32;33864;-57
2021/05/11 05:32:43;;;;;;;17.75;3.55;;;;;;;23.26;39.34;99503.22;4481162;32;86241;-56
2021/05/11 05:35:11;;;;;;;15.38;2.92;;;;;;;23.26;39.40;99502.41;4480330;32;33012;-59
2021/05/11 05:37:42;;;;;;;20.35;3.55;;;;;;;23.27;39.40;99506.78;4470578;32;34057;-60
2021/05/11 05:40:11;;;;;;;16.95;3.87;;;;;;;23.27;39.36;99509.50;4468734;32;33947;-59
2021/05/11 05:42:39;;;;;;;10.80;3.53;;;;;;;23.26;39.27;99503.22;4471154;32;33945;-60
2021/05/11 05:45:07;;;;;;;10.23;3.40;;;;;;;23.27;39.11;99504.06;4484264;32;32868;-59
2021/05/11 05:47:35;;;;;;;9.60;3.17;;;;;;;23.25;39.12;99492.59;4483963;32;33828;-60
2021/05/11 05:50:09;;;;;;;10.25;3.35;;;;;;;23.25;39.12;99498.84;4484045;32;33796;-59
2021/05/11 05:52:40;;;;;;;9.25;3.42;;;;;;;23.25;39.10;99498.84;4484075;32;33441;-59
2021/05/11 05:55:08;;;;;;;12.37;3.30;;;;;;;23.25;39.06;99496.13;4483938;32;33357;-58
2021/05/11 05:57:35;;;;;;;8.57;3.22;;;;;;;23.25;39.04;99492.59;4484095;32;33773;-59
2021/05/11 06:00:04;;;;;;;10.45;3.28;;;;;;;23.24;39.03;99494.47;4484092;32;34668;-59
2021/05/11 06:02:44;;;;;;;13.73;3.08;;;;;;;23.24;39.05;99494.47;4483700;32;33565;-56
2021/05/11 06:05:13;;;;;;;9.15;2.80;;;;;;;23.23;39.01;99498.28;4484419;32;33997;-58
2021/05/11 06:07:40;;;;;;;9.77;3.00;;;;;;;23.23;38.95;99492.00;4482867;32;33518;-59
2021/05/11 06:10:09;;;;;;;6.72;2.80;;;;;;;23.23;38.92;99492.81;4483913;32;33589;-59
2021/05/11 06:17:55;;;;;;;9.38;2.90;;;;;;;23.22;38.79;99496.59;4482940;32;34415;-59
2021/05/11 06:20:23;;;;;;;9.98;2.95;;;;;;;23.22;38.78;99493.03;4484215;32;33817;-58
2021/05/11 06:22:51;;;;;;;9.68;3.62;;;;;;;23.22;38.81;99493.88;4483581;32;34739;-59
2021/05/11 06:25:19;;;;;;;7.68;2.65;;;;;;;23.22;38.78;99491.16;4483732;32;33131;-59
2021/05/11 06:27:46;;;;;;;9.30;2.67;;;;;;;23.23;38.72;99497.44;4482091;32;33717;-58
2021/05/11 06:30:15;;;;;;;7.40;3.28;;;;;;;23.21;38.66;99484.03;4477671;32;34811;-55
2021/05/11 06:32:42;;;;;;;7.87;2.97;;;;;;;23.21;38.42;99494.09;4483581;32;33919;-55
2021/05/11 06:35:10;;;;;;;6.32;2.83;;;;;;;23.22;38.11;99495.75;4483517;32;33365;-57
2021/05/11 06:37:38;;;;;;;8.68;3.17;;;;;;;23.21;38.02;99492.22;4468876;32;33571;-55
2021/05/11 06:40:06;;;;;;;7.70;2.65;;;;;;;23.23;38.12;99487.38;4468009;32;33933;-56
2021/05/11 06:42:37;;;;;;;8.65;3.10;;;;;;;23.22;38.23;99482.16;4468115;32;33861;-56
2021/05/11 06:55:40;;;;;;;6.00;2.70;;;;;;;23.23;38.37;99481.94;4483385;32;33117;-55
2021/05/11 06:58:09;;;;;;;7.95;2.47;;;;;;;23.23;38.29;99481.94;4483371;32;34645;-57
2021/05/11 07:00:43;;;;;;;11.02;3.05;;;;;;;23.22;38.29;99491.16;4483286;32;33654;-57
2021/05/11 07:03:11;;;;;;;6.40;2.65;;;;;;;23.24;38.24;99482.75;4483618;32;34446;-57
2021/05/11 07:05:39;;;;;;;7.28;3.20;;;;;;;23.26;38.21;99477.91;4483410;32;33010;-56
2021/05/11 07:08:20;;;;;;;10.18;2.80;;;;;;;23.25;38.20;99471.62;4481963;32;33863;-57
2021/05/11 07:10:51;;;;;;;9.85;3.15;;;;;;;23.26;38.11;99476.00;4481681;32;35408;-56
2021/05/11 07:13:24;;;;;;;6.68;2.87;;;;;;;23.26;38.10;99461.56;4467679;32;34951;-57
2021/05/11 07:15:53;;;;;;;10.45;2.65;;;;;;;23.28;38.09;99464.91;4467512;32;33937;-55
2021/05/11 07:18:23;;;;;;;8.43;2.97;;;;;;;23.28;38.10;99462.19;4467528;32;34893;-57
2021/05/11 07:20:56;;;;;;;5.45;2.50;;;;;;;23.29;38.09;99464.66;4467430;32;33697;-57
2021/05/11 07:23:24;;;;;;;8.85;2.58;;;;;;;23.31;38.09;99457.09;4479042;32;34074;-56
2021/05/11 07:26:24;;;;;;;5.32;2.67;;;;;;;23.32;38.08;99458.75;4482299;32;33482;-56
2021/05/11 07:29:09;;;;;;;5.93;2.67;;;;;;;23.32;38.14;99460.66;4467373;32;33711;-57
2021/05/11 07:31:38;;;;;;;7.50;2.78;;;;;;;23.33;38.08;99468.59;4467152;32;34936;-57
2021/05/11 07:34:07;;;;;;;6.30;2.55;;;;;;;23.34;38.05;99458.53;4467493;32;33467;-57
2021/05/11 07:36:35;;;;;;;7.00;2.22;;;;;;;23.34;38.01;99462.06;4466964;32;34320;-56
2021/05/11 07:39:04;;;;;;;9.55;2.95;;;;;;;23.35;37.93;99466.44;4467265;32;34959;-57
2021/05/11 07:41:32;;;;;;;9.27;3.15;;;;;;;23.36;38.01;99464.53;4468404;32;34593;-56
2021/05/11 07:44:00;;;;;;;10.90;2.75;;;;;;;23.34;37.91;99472.12;4469330;32;34830;-54
2021/05/11 08:15:30;;;;;;;6.15;2.67;;;;;;;23.40;37.85;99474.72;4468825;32;33943;-55
2021/05/11 08:28:49;;;;;;;7.05;2.40;;;;;;;23.40;37.81;99480.19;4484814;32;33335;-56
2021/05/11 08:31:17;;;;;;;4.35;2.33;;;;;;;23.41;37.79;99476.41;4484583;32;33757;-57
2021/05/11 08:33:45;;;;;;;5.62;2.40;;;;;;;23.41;37.76;99470.16;4484570;32;33611;-54
2021/05/11 08:36:12;;;;;;;8.32;2.60;;;;;;;23.42;37.80;99477.25;4483434;32;33753;-57
2021/05/11 08:38:40;;;;;;;13.07;2.60;;;;;;;23.44;37.79;99483.28;4484829;32;34071;-57
2021/05/11 08:41:08;;;;;;;6.40;2.67;;;;;;;23.43;37.77;99479.72;4484509;32;33581;-55
2021/05/11 08:43:37;;;;;;;5.40;2.33;;;;;;;23.45;37.77;99475.94;4484608;32;34831;-57
2021/05/11 08:46:06;;;;;;;7.10;2.70;;;;;;;23.43;37.75;99474.28;4484495;32;33656;-56
2021/05/11 08:48:34;;;;;;;6.72;2.55;;;;;;;23.46;37.71;99477.63;4484570;32;33452;-55
2021/05/11 09:26:46;;;;;;;13.13;3.65;;;;;;;23.54;36.87;99437.22;4484074;32;33926;-55
2021/05/11 09:57:28;;;;;;;;;;;;;;;23.62;36.55;99441.50;4484691;32;34646;-56
2021/05/11 10:49:30;;;;;;;5.40;2.33;;;;;;;23.68;36.17;99397.81;4483738;32;34725;-56
2021/05/11 10:54:54;;;;;;;5.70;2.70;;;;;;;23.69;36.01;99385.06;4483611;32;33967;-56
2021/05/11 10:57:30;;;;;;;6.07;2.60;;;;;;;23.68;36.08;99386.94;4467972;32;34702;-56
2021/05/11 11:02:42;;;;;;;6.90;2.78;;;;;;;23.68;36.05;99367.84;4467600;32;33805;-56
2021/05/11 11:05:10;;;;;;;8.00;2.95;;;;;;;23.70;36.15;99364.09;4467736;32;33604;-54
2021/05/11 11:07:39;;;;;;;5.97;2.60;;;;;;;23.71;36.18;99363.03;4467956;32;33930;-57
2021/05/11 11:10:08;;;;;;;6.95;2.45;;;;;;;23.68;36.22;99358.88;4467557;32;33405;-56
2021/05/11 11:12:40;;;;;;;5.30;2.40;;;;;;;23.68;36.25;99356.97;4467508;32;33515;-58
2021/05/11 11:15:12;;;;;;;6.75;2.40;;;;;;;23.69;36.08;99349.66;4467601;32;34875;-56
2021/05/11 11:17:41;;;;;;;7.53;2.45;;;;;;;23.71;35.92;99350.22;4469386;32;34436;-56
2021/05/11 11:20:11;;;;;;;5.90;2.45;;;;;;;23.72;35.97;99353.78;4472695;32;34287;-55
2021/05/11 11:25:26;;;;;;;4.53;2.55;;;;;;;23.83;35.76;99352.94;4480483;32;33568;-54
2021/05/11 11:27:53;;;;;;;6.90;2.72;;;;;;;23.75;35.99;99343.22;4482993;32;34575;-58
2021/05/11 11:30:21;;;;;;;5.55;2.45;;;;;;;23.73;35.98;99339.06;4485094;32;33388;-57
2021/05/11 11:32:49;;;;;;;4.90;2.20;;;;;;;23.73;35.97;99341.81;4484859;32;34828;-54
2021/05/11 11:35:18;;;;;;;6.32;2.70;;;;;;;23.72;36.01;99330.09;4477544;32;33867;-57
2021/05/11 11:37:46;;;;;;;7.32;2.42;;;;;;;23.73;35.83;99328.19;4476868;32;33788;-56
2021/05/11 11:40:15;;;;;;;6.07;2.40;;;;;;;23.72;35.50;99323.81;4473799;32;33984;-57
2021/05/11 11:42:44;;;;;;;6.28;2.50;;;;;;;23.71;35.94;99317.53;4469133;32;33770;-58
2021/05/11 11:45:26;;;;;;;5.12;2.50;;;;;;;23.73;36.12;99325.47;4469263;32;33824;-57
2021/05/11 11:47:57;;;;;;;9.55;2.67;;;;;;;23.74;35.88;99303.44;4469055;32;33968;-57
2021/05/11 11:50:25;;;;;;;9.60;2.47;;;;;;;23.68;36.05;99307.94;4469308;32;34259;-56
2021/05/11 11:58:09;;;;;;;7.32;2.60;;;;;;;23.63;36.58;99291.47;4485033;32;33870;-59
2021/05/11 12:00:37;;;;;;;7.82;2.87;;;;;;;23.67;36.49;99287.22;4484800;32;34143;-60
2021/05/11 12:03:06;;;;;;;7.55;2.50;;;;;;;23.65;36.58;99269.47;4484961;32;33616;-59
2021/05/11 12:05:42;;;;;;;7.25;2.80;;;;;;;23.61;36.98;99269.09;4485015;32;33825;-59
2021/05/11 12:08:26;;;;;;;8.98;2.75;;;;;;;23.57;37.46;99270.63;4484819;32;34539;-60
2021/05/11 12:11:05;;;;;;;8.23;2.85;;;;;;;23.54;37.48;99268.38;4483830;32;33262;-60
2021/05/11 12:13:37;;;;;;;6.78;2.85;;;;;;;23.61;37.28;99257.38;4484432;32;33542;-60
2021/05/11 12:16:19;;;;;;;7.68;2.58;;;;;;;23.67;37.17;99251.81;4483031;32;34716;-60
2021/05/11 12:19:04;;;;;;;7.12;2.40;;;;;;;23.71;37.03;99243.16;4484728;32;33704;-60
2021/05/11 12:21:33;;;;;;;7.00;2.65;;;;;;;23.72;36.89;99245.63;4484894;32;33304;-60
2021/05/11 12:24:11;;;;;;;11.70;2.90;;;;;;;23.71;36.90;99241.25;4483563;32;34650;-60
2021/05/11 12:26:41;;;;;;;6.18;2.62;;;;;;;23.73;36.95;99239.13;4484197;32;33810;-59
2021/05/11 12:29:29;;;;;;;8.68;2.60;;;;;;;23.73;36.79;99228.22;4484737;32;33748;-60
2021/05/11 12:31:56;;;;;;;6.80;2.60;;;;;;;23.74;36.64;99226.34;4484590;32;33037;-60
2021/05/11 12:34:26;;;;;;;6.35;2.50;;;;;;;23.74;36.32;99223.63;4484487;32;33787;-60
2021/05/11 12:36:58;;;;;;;6.25;2.87;;;;;;;23.74;36.18;99221.72;4484729;32;34891;-59
2021/05/11 12:42:23;;;;;;;6.03;2.28;;;;;;;23.74;36.33;99204.56;4484659;32;34145;-59
2021/05/11 12:45:04;;;;;;;7.85;2.80;;;;;;;23.78;36.62;99202.97;4483565;32;33925;-56
2021/05/11 12:47:46;;;;;;;6.82;2.60;;;;;;;23.76;36.71;99208.69;4483589;32;33882;-56
2021/05/11 12:50:15;;;;;;;5.15;2.20;;;;;;;23.75;36.68;99198.03;4484408;32;33833;-54
2021/05/11 12:52:45;;;;;;;5.03;2.35;;;;;;;23.75;36.64;99198.84;4484486;32;33025;-57
2021/05/11 12:55:31;;;;;;;9.63;2.53;;;;;;;23.77;36.59;99199.44;4484528;32;33844;-53
2021/05/11 12:58:11;;;;;;;6.20;2.35;;;;;;;23.78;36.53;99197.53;4483648;32;33867;-56
2021/05/11 13:00:46;;;;;;;6.65;2.65;;;;;;;23.77;36.49;99195.88;4465549;32;34267;-55
2021/05/11 13:03:43;;;;;;;8.48;2.62;;;;;;;23.77;36.36;99188.53;4471595;32;33430;-57
2021/05/11 13:19:54;;;;;;;5.28;2.50;;;;;;;23.75;35.99;99173.53;4447218;31;34575;-60
2021/05/11 13:21:22;;;;;;;5.47;2.70;;;;;;;23.76;36.03;99162.37;4484371;32;34505;-59
2021/05/11 13:25:56;;;;;;;7.12;2.95;;;;;;;23.77;36.11;99166.75;4484533;32;33965;-59
2021/05/11 13:31:11;;;;;;;6.12;2.80;;;;;;;23.76;36.05;99151.47;4484241;32;33881;-60
2021/05/11 13:36:12;;;;;;;5.07;2.47;;;;;;;23.78;35.65;99143.03;4484285;32;33518;-60
2021/05/11 13:38:39;;;;;;;6.10;2.53;;;;;;;23.77;35.50;99138.69;4483644;32;33407;-60
2021/05/11 13:41:07;;;;;;;6.30;2.55;;;;;;;23.76;35.64;99132.41;4484227;32;34505;-61
2021/05/11 13:43:35;;;;;;;6.65;2.80;;;;;;;23.78;35.90;99141.19;4484301;32;33750;-56
2021/05/11 13:46:03;;;;;;;5.47;2.42;;;;;;;23.79;35.88;99131.09;4484198;32;32736;-59
2021/05/11 13:48:39;;;;;;;4.50;2.60;;;;;;;23.77;35.88;99125.88;4484166;32;34605;-56
2021/05/11 13:53:38;;;;;;;8.30;2.62;;;;;;;23.79;36.10;99115.59;4481296;31;33824;-60
2021/05/11 14:04:08;;;;;;;7.72;2.67;;;;;;;23.78;35.89;99105.75;4483986;32;33894;-60
2021/05/11 14:06:36;;;;;;;8.32;2.60;;;;;;;23.79;35.79;99103.88;4475666;31;33285;-60
2021/05/11 14:09:04;;;;;;;5.70;2.35;;;;;;;23.79;35.84;99103.88;4483530;31;33825;-59
2021/05/11 14:11:35;;;;;;;6.20;2.47;;;;;;;23.79;35.76;99092.97;4483539;32;33702;-59
2021/05/11 14:14:03;;;;;;;5.35;2.70;;;;;;;23.79;35.90;99095.69;4484115;32;34975;-60
2021/05/11 14:16:31;;;;;;;5.70;2.35;;;;;;;23.80;35.91;99094.59;4482341;31;33318;-59
2021/05/11 14:18:58;;;;;;;8.52;2.90;;;;;;;23.81;35.60;99088.09;4484113;32;34773;-60
2021/05/11 14:21:27;;;;;;;5.32;2.50;;;;;;;23.82;35.71;99092.44;4483764;31;33949;-59
2021/05/11 14:23:56;;;;;;;4.22;2.42;;;;;;;23.81;35.32;99080.72;4484220;32;33992;-59
2021/05/11 14:26:24;;;;;;;7.10;2.17;;;;;;;23.83;35.51;99075.06;4483513;31;33633;-59
2021/05/11 14:28:53;;;;;;;4.28;2.40;;;;;;;23.82;35.44;99081.56;4484299;32;33626;-59
2021/05/11 14:31:20;;;;;;;5.45;2.37;;;;;;;23.82;35.23;99073.38;4482727;31;33833;-60
2021/05/11 14:33:48;;;;;;;7.82;2.40;;;;;;;23.83;35.51;99075.06;4483756;32;34459;-60
2021/05/11 14:36:16;;;;;;;4.85;2.45;;;;;;;23.83;35.73;99075.88;4482477;31;33929;-59
2021/05/11 14:38:44;;;;;;;9.98;2.50;;;;;;;23.83;35.63;99070.44;4484204;32;33977;-60
2021/05/11 14:41:12;;;;;;;5.95;2.37;;;;;;;23.84;35.72;99071.25;4482537;31;33441;-60
2021/05/11 14:43:40;;;;;;;5.28;2.22;;;;;;;23.83;35.45;99066.88;4483824;32;33779;-58
2021/05/11 14:46:08;;;;;;;5.43;2.40;;;;;;;23.82;35.11;99076.94;4483119;32;33369;-59
2021/05/11 14:48:36;;;;;;;7.87;2.53;;;;;;;23.81;35.13;99071.75;4483438;32;33824;-59
2021/05/11 14:51:04;;;;;;;6.75;2.30;;;;;;;23.82;35.57;99071.47;4481193;31;33943;-59
2021/05/11 14:53:32;;;;;;;6.10;2.45;;;;;;;23.83;35.62;99072.34;4483405;32;34008;-59
2021/05/11 14:56:01;;;;;;;4.80;2.33;;;;;;;23.84;35.47;99076.72;4482677;32;34343;-59
2021/05/11 14:58:33;;;;;;;6.37;2.90;;;;;;;23.83;35.29;99073.16;4482749;31;33820;-59
2021/05/11 15:01:01;;;;;;;7.45;2.92;;;;;;;23.84;35.31;99068.53;4482839;31;33662;-57
2021/05/11 15:03:28;;;;;;;6.90;2.22;;;;;;;23.84;35.30;99063.91;4482513;31;34367;-60
2021/05/11 15:06:16;;;;;;;5.93;2.37;;;;;;;23.84;35.22;99063.91;4482654;31;32943;-59
2021/05/11 15:08:44;;;;;;;7.90;2.60;;;;;;;23.84;34.78;99057.63;4483155;32;33908;-60
2021/05/11 15:11:11;;;;;;;6.28;2.58;;;;;;;23.84;35.08;99061.19;4481399;31;34853;-59
2021/05/11 15:13:41;;;;;;;6.93;2.40;;;;;;;23.85;35.54;99059.28;4467614;32;33994;-60
2021/05/11 15:16:12;;;;;;;10.45;2.92;;;;;;;23.84;35.60;99055.72;4476053;31;33592;-60
2021/05/11 15:18:41;;;;;;;4.78;2.28;;;;;;;23.84;35.81;99052.19;4483030;32;33478;-60
2021/05/11 15:21:08;;;;;;;6.95;2.30;;;;;;;23.83;35.91;99045.09;4481549;31;33832;-59
2021/05/11 15:23:36;;;;;;;6.72;2.37;;;;;;;23.84;35.88;99039.38;4481014;31;35022;-59
2021/05/11 15:26:04;;;;;;;5.15;2.08;;;;;;;23.85;35.77;99042.94;4482579;31;33118;-60
2021/05/11 15:28:32;;;;;;;6.62;2.50;;;;;;;23.84;35.29;99028.50;4454269;32;33915;-60
2021/05/11 15:31:00;;;;;;;6.62;2.10;;;;;;;23.85;35.15;99026.59;4478922;31;33859;-60
2021/05/11 15:33:28;;;;;;;6.97;2.62;;;;;;;23.84;35.20;99031.22;4482103;31;34678;-59
2021/05/11 15:35:57;;;;;;;6.97;2.92;;;;;;;23.85;35.39;99021.12;4482298;31;33041;-59
2021/05/11 15:38:28;;;;;;;5.57;2.12;;;;;;;23.85;35.43;99027.41;4482791;32;33866;-57
2021/05/11 15:40:56;;;;;;;9.48;2.55;;;;;;;23.86;35.33;99020.88;4481526;31;33935;-59
2021/05/11 15:43:24;;;;;;;7.32;2.20;;;;;;;23.86;35.15;99020.06;4482295;32;33532;-59
2021/05/11 15:45:51;;;;;;;4.57;2.28;;;;;;;23.85;35.32;99021.97;4482067;31;33280;-59
2021/05/11 15:48:19;;;;;;;7.70;2.30;;;;;;;23.85;35.08;99019.22;4481507;32;34596;-59
2021/05/11 15:50:47;;;;;;;5.82;2.65;;;;;;;23.84;35.19;99016.78;4481843;31;33983;-60
2021/05/11 15:53:16;;;;;;;5.37;2.25;;;;;;;23.84;35.31;99003.97;4481629;31;34583;-57
2021/05/11 15:55:44;;;;;;;6.80;2.35;;;;;;;23.83;35.55;99007.78;4468857;31;33466;-61
2021/05/11 15:58:12;;;;;;;13.80;2.87;;;;;;;23.83;35.52;99013.22;4482428;31;33564;-61
2021/05/11 16:00:42;;;;;;;8.60;2.58;;;;;;;23.87;35.71;99002.63;4482820;32;33900;-60
2021/05/11 16:03:10;;;;;;;9.50;3.08;;;;;;;23.87;35.59;98997.19;4483782;31;33637;-60
2021/05/11 16:05:38;;;;;;;11.20;2.62;;;;;;;23.89;35.47;99001.31;4484815;32;33499;-60
2021/05/11 16:08:10;;;;;;;10.48;2.90;;;;;;;23.88;35.49;98996.13;4481279;31;34541;-60
2021/05/11 16:10:42;;;;;;;16.83;2.55;;;;;;;23.90;35.49;98993.97;4483270;31;34645;-61
2021/05/11 16:13:10;;;;;;;7.75;2.65;;;;;;;23.89;35.50;98995.87;4484647;31;33850;-60
2021/05/11 16:15:39;;;;;;;5.80;2.85;;;;;;;23.89;35.47;99003.22;4483490;31;33351;-61